Time;durP1;ratioP1;P1;durP2;ratioP2;P2;SDS_P1;SDS_P2;PMS_P1;PMS_P2;Temp;Humidity;BMP_temperature;BMP_pressure;BME280_temperature;BME280_humidity;BME280_pressure;Samples;Min_cycle;Max_cycle;Signal;HPM_P1;HPM_P2
2022/01/15 00:01:54;;;;;;;34.53;14.48;;;;;;;0.43;100.00;102024.84;6246155;23;20432;-91
2022/01/15 00:04:22;;;;;;;;;;;;;;;0.77;100.00;102084.63;6245709;23;20534;-93
2022/01/15 00:06:55;;;;;;;38.90;15.35;;;;;;;0.76;100.00;102090.69;6243995;23;19946;-94
2022/01/15 00:09:28;;;;;;;45.47;17.52;;;;;;;0.45;100.00;102025.75;6242267;23;20023;-94
2022/01/15 00:11:57;;;;;;;43.72;16.98;;;;;;;0.46;100.00;102023.16;6246186;23;20439;-94
2022/01/15 00:14:28;;;;;;;42.97;17.17;;;;;;;0.64;100.00;102048.69;6244231;23;20024;-93
2022/01/15 00:17:33;;;;;;;43.72;16.42;;;;;;;0.80;100.00;102073.34;6244653;23;20016;-93
2022/01/15 00:20:12;;;;;;;48.55;18.15;;;;;;;0.64;100.00;102022.63;6245359;23;20051;-93
2022/01/15 00:22:39;;;;;;;48.42;18.58;;;;;;;0.64;100.00;102040.88;6223732;23;20020;-93
2022/01/15 00:25:06;;;;;;;48.08;17.45;;;;;;;0.71;100.00;102050.59;6248582;23;20390;-94
2022/01/15 00:27:40;;;;;;;49.35;18.60;;;;;;;0.64;100.00;102043.47;6221596;23;20086;-93
2022/01/15 00:30:08;;;;;;;46.75;18.45;;;;;;;0.58;100.00;102014.72;6245544;23;20017;-93
2022/01/15 00:32:53;;;;;;;52.60;19.38;;;;;;;0.51;100.00;102018.03;6246084;23;20451;-93
2022/01/15 00:35:27;;;;;;;49.90;18.17;;;;;;;0.55;100.00;102038.09;6243751;23;20012;-93
2022/01/15 00:37:57;;;;;;;51.22;18.77;;;;;;;0.84;100.00;102078.66;6247919;23;20099;-94
2022/01/15 00:40:24;;;;;;;60.53;21.08;;;;;;;0.57;100.00;102026.88;6245491;23;20023;-94
2022/01/15 00:42:51;;;;;;;55.78;20.38;;;;;;;0.51;100.00;102021.50;6220757;23;20417;-94
2022/01/15 00:45:22;;;;;;;45.00;16.95;;;;;;;0.92;100.00;102077.09;6222440;23;20027;-93
2022/01/15 00:47:56;;;;;;;57.08;21.83;;;;;;;0.71;100.00;102037.56;6247882;23;20020;-94
2022/01/15 00:50:25;;;;;;;56.60;20.88;;;;;;;0.80;100.00;102070.75;6248204;23;20023;-93
2022/01/15 00:52:57;;;;;;;59.17;20.42;;;;;;;0.73;100.00;102061.94;6246922;23;20074;-93
2022/01/15 00:55:29;;;;;;;61.53;21.33;;;;;;;0.71;100.00;102055.81;6250969;23;20050;-94
2022/01/15 00:57:58;;;;;;;62.65;20.65;;;;;;;0.61;100.00;102036.50;6258742;23;20039;-94
2022/01/15 01:00:27;;;;;;;60.70;21.17;;;;;;;0.50;100.00;102003.22;6252900;23;20081;-93
2022/01/15 01:02:57;;;;;;;52.50;20.35;;;;;;;0.90;100.00;102070.97;6230533;23;20028;-96
2022/01/15 01:05:26;;;;;;;57.17;21.15;;;;;;;0.78;100.00;102041.19;6256302;23;20016;-94
2022/01/15 01:07:56;;;;;;;54.63;21.65;;;;;;;0.62;100.00;102017.41;6226294;23;20038;-94
2022/01/15 01:24:32;;;;;;;49.35;20.40;;;;;;;0.89;100.00;102029.19;6246547;23;20096;-94
2022/01/15 01:27:19;;;;;;;49.03;18.58;;;;;;;0.75;100.00;102015.91;6219525;23;20035;-95
2022/01/15 01:30:19;;;;;;;41.40;16.48;;;;;;;0.82;100.00;102017.78;6240037;23;20012;-94
2022/01/15 01:35:37;;;;;;;39.70;16.52;;;;;;;0.73;100.00;101993.25;6250733;23;20028;-96
2022/01/15 01:38:19;;;;;;;44.25;17.17;;;;;;;0.67;100.00;101978.38;6238006;23;20040;-94
2022/01/15 01:40:51;;;;;;;45.80;17.60;;;;;;;0.84;100.00;102010.84;6245786;23;20012;-93
2022/01/15 01:46:00;;;;;;;43.03;16.40;;;;;;;0.83;100.00;101997.78;6220301;23;20085;-93
2022/01/15 01:48:27;;;;;;;41.00;16.33;;;;;;;0.94;100.00;102023.22;6198439;23;20444;-93
2022/01/15 01:50:56;;;;;;;46.08;18.35;;;;;;;0.78;100.00;101989.03;6217201;23;20031;-95
2022/01/15 01:53:25;;;;;;;48.88;17.67;;;;;;;0.91;100.00;102007.53;6243209;23;20020;-94
2022/01/15 01:55:51;;;;;;;46.10;19.25;;;;;;;0.68;100.00;101956.66;6244284;23;20016;-95
2022/01/15 01:58:19;;;;;;;47.30;17.50;;;;;;;0.93;100.00;101991.91;6244907;23;20016;-93
2022/01/15 02:00:46;;;;;;;48.72;18.08;;;;;;;0.95;100.00;101991.06;6244625;23;20016;-94
2022/01/15 02:03:15;;;;;;;48.78;17.63;;;;;;;0.82;100.00;101965.63;6246039;23;20044;-94
2022/01/15 02:05:44;;;;;;;46.47;18.60;;;;;;;1.08;100.00;102020.00;6246584;23;20020;-93
2022/01/15 02:08:16;;;;;;;53.28;18.95;;;;;;;0.93;100.00;101984.97;6246634;23;20020;-94
2022/01/15 02:10:49;;;;;;;51.60;19.00;;;;;;;0.77;100.00;101962.06;6222772;23;20447;-93
2022/01/15 02:13:18;;;;;;;54.80;20.35;;;;;;;1.09;100.00;102017.41;6247695;23;20082;-94
2022/01/15 02:16:14;;;;;;;56.65;20.95;;;;;;;1.12;100.00;102017.44;6241988;23;20020;-94
2022/01/15 02:18:47;;;;;;;55.08;20.63;;;;;;;0.95;100.00;101977.13;6246179;23;20030;-94
2022/01/15 02:23:44;;;;;;;55.05;21.10;;;;;;;0.97;100.00;101973.69;6221224;23;20027;-93
2022/01/15 02:26:26;;;;;;;50.45;19.58;;;;;;;0.85;100.00;101955.25;6246676;23;20032;-94
2022/01/15 02:29:00;;;;;;;52.13;20.60;;;;;;;0.98;100.00;101967.63;6247251;23;20363;-94
2022/01/15 02:31:32;;;;;;;51.53;19.98;;;;;;;1.17;100.00;102001.88;6245555;23;20103;-94
2022/01/15 02:34:07;;;;;;;51.28;18.85;;;;;;;1.07;100.00;101984.31;6244409;23;20019;-94
2022/01/15 02:36:37;;;;;;;47.70;18.88;;;;;;;1.05;100.00;101979.06;6246469;23;20067;-93
2022/01/15 02:39:07;;;;;;;45.83;18.50;;;;;;;1.02;100.00;101977.28;6223136;23;20032;-94
2022/01/15 02:41:41;;;;;;;46.83;18.73;;;;;;;0.77;100.00;101925.56;6223931;23;20093;-93
2022/01/15 02:44:17;;;;;;;50.75;19.33;;;;;;;0.82;100.00;101930.84;6250429;23;20078;-94
2022/01/15 02:49:20;;;;;;;48.90;18.20;;;;;;;0.87;100.00;101930.06;6250722;23;20016;-94
2022/01/15 02:51:50;;;;;;;47.75;19.73;;;;;;;0.98;100.00;101956.31;6253220;23;20080;-96
2022/01/15 02:54:38;;;;;;;51.75;21.20;;;;;;;0.85;100.00;101939.59;6222567;23;20443;-95
2022/01/15 02:57:17;;;;;;;51.83;20.00;;;;;;;1.08;100.00;101968.69;6248684;23;20012;-93
2022/01/15 02:59:54;;;;;;;48.65;18.83;;;;;;;1.07;100.00;101961.72;6249569;23;20366;-94
2022/01/15 03:02:33;;;;;;;50.65;20.02;;;;;;;1.21;100.00;101985.41;6230992;23;20020;-93
2022/01/15 03:05:09;;;;;;;44.83;17.92;;;;;;;0.86;100.00;101930.91;6235009;23;20016;-94
2022/01/15 03:07:37;;;;;;;44.65;17.70;;;;;;;1.11;100.00;101954.78;6261115;23;20016;-94
2022/01/15 03:10:09;;;;;;;45.63;18.02;;;;;;;0.94;100.00;101918.91;6241238;22;20004;-96
2022/01/15 03:12:44;;;;;;;41.75;17.88;;;;;;;0.91;100.00;101908.41;6270985;22;20022;-96
2022/01/15 03:15:20;;;;;;;42.92;17.05;;;;;;;1.09;100.00;101915.66;6246052;22;20019;-95
2022/01/15 03:17:53;;;;;;;43.60;17.20;;;;;;;0.93;100.00;101909.31;6267798;22;20103;-94
2022/01/15 03:20:23;;;;;;;43.10;18.10;;;;;;;0.93;100.00;101921.50;6253903;23;20086;-94
2022/01/15 03:22:54;;;;;;;45.40;18.63;;;;;;;0.93;100.00;101917.16;6248590;23;20021;-94
2022/01/15 03:25:23;;;;;;;48.40;18.73;;;;;;;1.09;100.00;101944.38;6248424;23;20024;-93
2022/01/15 03:27:52;;;;;;;45.53;19.27;;;;;;;1.14;100.00;101955.72;6246719;23;20791;-93
2022/01/15 03:30:25;;;;;;;47.95;18.20;;;;;;;1.32;100.00;101978.63;6245886;23;20019;-92
2022/01/15 03:32:56;;;;;;;44.33;18.50;;;;;;;1.28;100.00;101971.59;6245621;23;20094;-95
2022/01/15 03:35:23;;;;;;;43.95;17.80;;;;;;;0.95;100.00;101918.03;6245379;23;20112;-94
2022/01/15 03:37:50;;;;;;;50.50;19.13;;;;;;;1.09;100.00;101933.94;6218967;23;20019;-93
2022/01/15 03:40:19;;;;;;;44.17;18.25;;;;;;;1.22;100.00;101945.44;6244428;23;20502;-92
2022/01/15 03:42:48;;;;;;;41.63;17.23;;;;;;;0.99;100.00;101909.41;6244607;23;20020;-93
2022/01/15 03:45:16;;;;;;;45.28;18.30;;;;;;;1.07;100.00;101926.94;6244679;23;20020;-93
2022/01/15 03:47:45;;;;;;;47.88;18.63;;;;;;;1.16;100.00;101929.66;6247430;23;20024;-94
2022/01/15 03:50:13;;;;;;;43.85;17.98;;;;;;;1.06;100.00;101918.22;6193246;23;20027;-93
2022/01/15 03:52:45;;;;;;;40.90;16.60;;;;;;;1.28;100.00;101955.94;6247121;23;20035;-94
2022/01/15 03:55:14;;;;;;;38.55;16.45;;;;;;;1.25;100.00;101941.16;6246898;23;20485;-93
2022/01/15 03:57:46;;;;;;;43.72;18.00;;;;;;;1.34;100.00;101956.94;6246235;23;20066;-94
2022/01/15 04:00:20;;;;;;;43.70;17.80;;;;;;;1.02;100.00;101900.75;6244088;23;20038;-93
2022/01/15 04:02:49;;;;;;;40.33;16.65;;;;;;;1.20;100.00;101921.91;6244536;23;20043;-93
2022/01/15 04:05:18;;;;;;;40.95;16.05;;;;;;;1.38;100.00;101963.97;6246031;23;20016;-93
2022/01/15 04:07:49;;;;;;;42.80;17.75;;;;;;;1.20;100.00;101919.31;6265758;23;20024;-94
2022/01/15 04:10:18;;;;;;;45.47;18.23;;;;;;;1.35;100.00;101949.97;6260878;23;20080;-95
2022/01/15 04:12:50;;;;;;;44.47;17.48;;;;;;;1.34;100.00;101932.56;6258468;23;20016;-93
2022/01/15 04:15:25;;;;;;;38.78;16.88;;;;;;;1.20;100.00;101916.69;6251989;23;20038;-94
2022/01/15 04:18:06;;;;;;;41.05;16.75;;;;;;;1.20;100.00;101913.22;6245884;23;20028;-94
2022/01/15 04:20:41;;;;;;;41.35;16.45;;;;;;;1.20;100.00;101910.59;6245574;23;20016;-94
2022/01/15 04:23:13;;;;;;;40.08;16.48;;;;;;;1.10;100.00;101882.63;6245259;23;20024;-94
2022/01/15 04:25:44;;;;;;;43.80;17.48;;;;;;;1.28;100.00;101915.06;6248305;23;20024;-94
2022/01/15 04:28:21;;;;;;;39.70;17.20;;;;;;;1.37;100.00;101930.00;6244524;23;20020;-95
2022/01/15 04:30:54;;;;;;;44.17;17.08;;;;;;;1.29;100.00;101918.56;6243809;23;20046;-96
2022/01/15 04:33:23;;;;;;;47.72;18.05;;;;;;;1.27;100.00;101910.69;6247772;23;20042;-94
2022/01/15 04:35:52;;;;;;;42.78;17.88;;;;;;;1.05;100.00;101877.34;6222468;23;20019;-94
2022/01/15 04:38:24;;;;;;;40.47;17.45;;;;;;;1.12;100.00;101865.25;6248922;23;20507;-93
2022/01/15 04:40:55;;;;;;;39.70;15.68;;;;;;;1.47;100.00;101928.41;6222627;23;20021;-95
2022/01/15 04:43:28;;;;;;;37.55;15.82;;;;;;;1.24;100.00;101894.16;6249079;23;20078;-95
2022/01/15 04:45:57;;;;;;;41.10;15.68;;;;;;;1.30;100.00;101904.66;6249848;23;20436;-95
2022/01/15 04:48:25;;;;;;;37.85;15.75;;;;;;;1.25;100.00;101908.94;6249131;23;20016;-94
2022/01/15 04:50:58;;;;;;;37.90;16.05;;;;;;;1.09;100.00;101867.81;6248983;23;20023;-95
2022/01/15 04:53:26;;;;;;;44.22;16.50;;;;;;;1.38;100.00;101909.16;6248254;23;20070;-95
2022/01/15 04:56:02;;;;;;;38.28;16.35;;;;;;;1.31;100.00;101886.41;6248655;23;20028;-95
2022/01/15 04:58:36;;;;;;;37.45;16.58;;;;;;;1.32;100.00;101890.78;6249044;23;20016;-96
2022/01/15 05:04:34;;;;;;;39.10;16.05;;;;;;;1.17;100.00;101846.19;6249221;23;20048;-95
2022/01/15 05:07:04;;;;;;;34.72;15.23;;;;;;;1.38;100.00;101890.00;6223777;23;20046;-95
2022/01/15 05:09:35;;;;;;;33.58;15.00;;;;;;;1.19;100.00;101854.06;6246057;23;20108;-94
2022/01/15 05:12:10;;;;;;;34.38;14.35;;;;;;;1.42;100.00;101886.56;6243811;23;20031;-94
2022/01/15 05:14:38;;;;;;;34.08;15.20;;;;;;;1.52;100.00;101898.91;6220663;23;20028;-94
2022/01/15 05:17:07;;;;;;;29.00;13.52;;;;;;;1.23;100.00;101832.38;6221764;23;20067;-93
2022/01/15 05:19:39;;;;;;;28.40;13.75;;;;;;;1.30;100.00;101844.63;6246848;23;20012;-96
2022/01/15 05:22:19;;;;;;;30.17;13.82;;;;;;;1.42;100.00;101858.72;6243154;23;20016;-94
2022/01/15 05:24:51;;;;;;;21.45;11.40;;;;;;;1.54;100.00;101884.16;6246960;23;20016;-94
2022/01/15 05:27:19;;;;;;;25.75;12.25;;;;;;;1.42;100.00;101855.25;6251675;23;20039;-93
2022/01/15 05:29:46;;;;;;;26.20;12.85;;;;;;;1.44;100.00;101858.75;6257331;23;20012;-95
2022/01/15 05:32:18;;;;;;;18.95;10.32;;;;;;;1.39;100.00;101830.00;6248778;23;20020;-94
2022/01/15 05:34:46;;;;;;;19.88;10.88;;;;;;;1.40;100.00;101836.09;6246690;23;20016;-95
2022/01/15 05:37:16;;;;;;;19.92;10.93;;;;;;;1.74;100.00;101890.47;6246718;23;20403;-93
2022/01/15 05:39:43;;;;;;;21.23;11.55;;;;;;;1.76;100.00;101894.00;6247722;23;20098;-95
2022/01/15 05:42:15;;;;;;;19.55;11.13;;;;;;;1.45;100.00;101830.91;6222210;23;20101;-93
2022/01/15 05:44:42;;;;;;;21.52;11.25;;;;;;;1.44;100.00;101822.19;6248771;23;20027;-93
2022/01/15 05:47:12;;;;;;;24.65;12.25;;;;;;;1.49;100.00;101835.31;6224057;23;20486;-95
2022/01/15 05:49:39;;;;;;;23.73;12.50;;;;;;;1.47;100.00;101832.69;6250936;23;20070;-93
2022/01/15 05:52:08;;;;;;;23.33;12.35;;;;;;;1.51;100.00;101839.72;6253523;23;20035;-94
2022/01/15 05:54:35;;;;;;;25.38;13.38;;;;;;;1.54;100.00;101847.59;6231768;23;20027;-94
2022/01/15 05:57:03;;;;;;;26.83;13.40;;;;;;;1.48;100.00;101826.63;6261221;23;20020;-95
2022/01/15 05:59:37;;;;;;;27.73;14.35;;;;;;;1.67;100.00;101857.34;6262908;23;20024;-95
2022/01/15 06:02:16;;;;;;;26.25;14.35;;;;;;;1.64;100.00;101849.44;6235561;23;20165;-96
2022/01/15 06:04:53;;;;;;;27.38;14.38;;;;;;;1.71;100.00;101859.13;6263723;23;20095;-96
2022/01/15 06:07:34;;;;;;;30.50;14.80;;;;;;;1.66;100.00;101855.56;6266031;22;20030;-96
2022/01/15 06:10:03;;;;;;;30.05;15.98;;;;;;;1.53;100.00;101830.19;6262635;22;20043;-94
2022/01/15 06:12:40;;;;;;;28.98;15.02;;;;;;;1.67;100.00;101854.72;6239413;22;20032;-95
2022/01/15 06:15:16;;;;;;;31.52;15.98;;;;;;;1.62;100.00;101834.63;6269669;22;20020;-94
2022/01/15 06:17:58;;;;;;;30.80;14.65;;;;;;;1.85;100.00;101868.88;6257333;22;20050;-93
2022/01/15 06:20:26;;;;;;;34.72;15.90;;;;;;;1.50;100.00;101817.06;6230488;23;20020;-95
2022/01/15 06:22:57;;;;;;;35.13;16.85;;;;;;;1.75;100.00;101866.13;6252407;23;20048;-95
2022/01/15 06:25:29;;;;;;;36.03;16.83;;;;;;;1.54;100.00;101813.66;6225184;23;20031;-95
2022/01/15 06:27:57;;;;;;;37.47;16.73;;;;;;;1.67;100.00;101852.09;6234281;23;20475;-95
2022/01/15 06:30:27;;;;;;;36.58;16.73;;;;;;;1.67;100.00;101840.78;6253371;23;20323;-95
2022/01/15 06:32:59;;;;;;;31.92;14.80;;;;;;;1.51;100.00;101808.38;6248967;23;20016;-94
2022/01/15 06:35:26;;;;;;;29.45;13.73;;;;;;;1.56;100.00;101835.44;6224703;23;20435;-95
2022/01/15 06:37:54;;;;;;;30.02;14.43;;;;;;;1.68;100.00;101842.53;6224083;23;20024;-92
2022/01/15 06:40:23;;;;;;;28.63;13.38;;;;;;;1.84;100.00;101860.16;6247997;23;20020;-93
2022/01/15 06:42:51;;;;;;;34.63;14.05;;;;;;;1.67;100.00;101830.34;6245934;23;20399;-93
2022/01/15 06:45:19;;;;;;;34.08;15.82;;;;;;;1.49;100.00;101802.28;6247634;23;20027;-92
2022/01/15 06:47:47;;;;;;;32.92;16.17;;;;;;;1.88;100.00;101866.28;6247162;23;20478;-93
2022/01/15 06:50:14;;;;;;;30.35;15.10;;;;;;;1.85;100.00;101861.03;6221500;23;20060;-93
2022/01/15 06:52:42;;;;;;;34.17;14.90;;;;;;;1.53;100.00;101806.69;6251033;23;20020;-93
2022/01/15 06:55:14;;;;;;;35.65;15.73;;;;;;;1.86;100.00;101866.28;6259961;23;20021;-95
2022/01/15 06:57:44;;;;;;;36.63;15.98;;;;;;;1.56;100.00;101806.72;6260439;23;20015;-95
2022/01/15 07:00:24;;;;;;;;;;;;;;;;;;;;;
2022/01/15 07:02:53;;;;;;;30.70;13.70;;;;;;;1.68;100.00;101814.69;6254179;23;20016;-94
2022/01/15 07:05:20;;;;;;;31.55;14.65;;;;;;;1.88;100.00;101850.63;6252752;23;20027;-94
2022/01/15 07:07:48;;;;;;;31.05;14.40;;;;;;;1.85;100.00;101843.63;6248460;23;20020;-93
2022/01/15 07:10:16;;;;;;;35.88;15.20;;;;;;;1.71;100.00;101825.19;6248961;23;20374;-93
2022/01/15 07:12:50;;;;;;;32.63;15.18;;;;;;;1.92;100.00;101868.06;6248260;23;20019;-93
2022/01/15 07:15:21;;;;;;;34.67;15.27;;;;;;;1.88;100.00;101850.63;6224736;23;20030;-93
2022/01/15 07:17:50;;;;;;;36.55;14.73;;;;;;;1.72;100.00;101824.31;6238213;23;20018;-93
2022/01/15 07:20:20;;;;;;;31.02;13.65;;;;;;;1.76;100.00;101827.81;6247989;23;20016;-92
2022/01/15 07:23:00;;;;;;;36.67;14.45;;;;;;;1.86;100.00;101848.00;6222260;23;20383;-94
2022/01/15 07:25:30;;;;;;;34.65;15.48;;;;;;;1.85;100.00;101837.53;6250126;23;20020;-93
2022/01/15 07:27:59;;;;;;;31.58;14.07;;;;;;;1.94;100.00;101855.91;6254700;23;20352;-94
2022/01/15 07:30:26;;;;;;;33.60;14.40;;;;;;;1.67;100.00;101820.78;6238316;23;20557;-94
2022/01/15 07:32:55;;;;;;;31.65;14.27;;;;;;;1.83;100.00;101836.63;6213487;23;20020;-95
2022/01/15 07:35:23;;;;;;;33.20;13.48;;;;;;;1.80;100.00;101836.59;6239473;23;20008;-93
2022/01/15 07:37:57;;;;;;;35.78;15.20;;;;;;;1.79;100.00;101834.81;6265252;23;20017;-94
2022/01/15 07:40:36;;;;;;;32.08;14.27;;;;;;;1.77;100.00;101840.91;6258590;22;20020;-93
2022/01/15 07:43:07;;;;;;;35.10;14.73;;;;;;;1.90;100.00;101859.31;6257871;23;20075;-94
2022/01/15 07:45:42;;;;;;;35.00;15.18;;;;;;;1.60;100.00;101805.88;6254960;23;20036;-93
2022/01/15 07:48:09;;;;;;;32.40;14.45;;;;;;;1.96;100.00;101864.63;6223680;23;20123;-94
2022/01/15 07:50:40;;;;;;;28.77;13.75;;;;;;;1.65;100.00;101806.81;6248264;23;20080;-93
2022/01/15 07:53:15;;;;;;;27.38;13.27;;;;;;;1.80;100.00;101836.59;6246771;23;20459;-93
2022/01/15 07:55:49;;;;;;;31.27;14.30;;;;;;;1.72;100.00;101813.00;6246383;23;20017;-94
2022/01/15 07:58:22;;;;;;;30.23;13.15;;;;;;;1.72;100.00;101821.72;6247447;23;20075;-94
2022/01/15 08:00:53;;;;;;;30.60;14.70;;;;;;;1.70;100.00;101814.72;6251933;23;20331;-93
2022/01/15 08:03:21;;;;;;;34.47;14.15;;;;;;;1.87;100.00;101856.72;6219453;23;20109;-93
2022/01/15 08:06:02;;;;;;;33.83;15.43;;;;;;;1.88;100.00;101850.63;6247102;23;20279;-94
2022/01/15 08:08:43;;;;;;;32.38;14.85;;;;;;;1.65;100.00;101806.81;6248395;23;20748;-92
2022/01/15 08:11:23;;;;;;;33.40;15.73;;;;;;;1.81;100.00;101844.44;6246794;23;20498;-93
2022/01/15 08:14:05;;;;;;;37.33;15.82;;;;;;;1.84;100.00;101841.88;6246271;23;20027;-93
2022/01/15 08:16:50;;;;;;;35.25;15.02;;;;;;;1.99;100.00;101862.94;6248552;23;20023;-94
2022/01/15 08:19:23;;;;;;;32.22;13.40;;;;;;;1.95;100.00;101842.84;6247708;23;20041;-95
2022/01/15 08:21:54;;;;;;;34.45;13.95;;;;;;;1.93;100.00;101846.31;6248199;23;20016;-95
2022/01/15 08:24:21;;;;;;;35.47;14.73;;;;;;;1.96;100.00;101836.78;6221877;23;20016;-96
2022/01/15 08:27:05;;;;;;;;;;;;;;;;;;;;;
2022/01/15 08:30:13;;;;;;;;;;;;;;;;;;;;;
2022/01/15 08:32:48;;;;;;;35.50;14.05;;;;;;;2.05;100.00;101839.47;6229222;23;20016;-93
2022/01/15 08:35:24;;;;;;;29.92;13.77;;;;;;;1.84;100.00;101807.91;6244297;23;20020;-92
2022/01/15 08:38:15;;;;;;;30.02;13.13;;;;;;;1.84;100.00;101791.38;6246715;23;20056;-92
2022/01/15 08:40:45;;;;;;;31.20;13.57;;;;;;;1.84;100.00;101791.38;6249737;23;20707;-93
2022/01/15 08:43:29;;;;;;;34.50;15.38;;;;;;;2.09;100.00;101832.56;6235722;23;20024;-93
2022/01/15 08:46:00;;;;;;;38.35;14.60;;;;;;;2.07;100.00;101822.09;6247445;23;20051;-93
2022/01/15 08:48:27;;;;;;;38.55;14.70;;;;;;;2.06;100.00;101824.69;6223014;23;20020;-92
2022/01/15 08:51:09;;;;;;;36.15;14.55;;;;;;;2.11;100.00;101815.16;6220616;23;20029;-91
2022/01/15 08:53:39;;;;;;;37.97;14.65;;;;;;;2.25;100.00;101824.00;6249497;23;20080;-92
2022/01/15 08:56:13;;;;;;;25.13;12.88;;;;;;;2.28;100.00;101817.94;6249566;23;20016;-91
2022/01/15 08:58:54;;;;;;;22.38;10.23;;;;;;;2.22;100.00;101810.91;6252392;23;20020;-94
2022/01/15 09:01:22;;;;;;;15.02;9.05;;;;;;;2.46;100.00;101847.75;6219879;23;20020;-94
2022/01/15 09:03:49;;;;;;;17.13;9.50;;;;;;;2.24;100.00;101800.47;6241079;23;20262;-92
2022/01/15 09:06:19;;;;;;;18.80;9.98;;;;;;;2.28;100.00;101803.13;6218761;23;20036;-91
2022/01/15 09:08:46;;;;;;;19.60;8.98;;;;;;;2.41;100.00;101825.03;6241686;23;20036;-91
2022/01/15 09:11:13;;;;;;;18.40;10.30;;;;;;;2.37;100.00;101810.16;6239882;23;20099;-91
2022/01/15 09:13:44;;;;;;;13.60;8.00;;;;;;;2.52;100.00;101826.00;6239379;23;20024;-91
2022/01/15 09:16:26;;;;;;;16.15;7.97;;;;;;;2.55;100.00;101830.38;6243760;23;20088;-90
2022/01/15 09:18:55;;;;;;;13.90;8.13;;;;;;;2.35;100.00;101807.56;6243346;23;20016;-91
2022/01/15 09:21:24;;;;;;;12.27;7.20;;;;;;;2.61;100.00;101854.84;6242953;23;20059;-90
2022/01/15 09:23:54;;;;;;;13.70;7.78;;;;;;;2.33;100.00;101804.06;6240196;23;20097;-94
2022/01/15 09:27:01;;;;;;;12.80;7.85;;;;;;;2.57;100.00;101846.97;6243400;23;20008;-90
2022/01/15 09:32:21;;;;;;;11.00;6.50;;;;;;;2.42;100.00;101803.25;6240752;23;20016;-91
2022/01/15 09:34:48;;;;;;;10.23;7.05;;;;;;;2.57;100.00;101826.03;6245700;23;20020;-91
2022/01/15 09:37:19;;;;;;;12.02;7.88;;;;;;;2.55;100.00;101819.91;6242523;23;20024;-89
2022/01/15 09:39:57;;;;;;;15.13;8.45;;;;;;;2.63;100.00;101834.81;6243708;23;20028;-91
2022/01/15 09:42:44;;;;;;;14.80;8.57;;;;;;;2.58;100.00;101815.59;6241723;23;20440;-91
2022/01/15 09:45:14;;;;;;;13.32;8.18;;;;;;;2.35;100.00;101786.66;6216242;23;20074;-91
2022/01/15 09:47:59;;;;;;;13.18;8.45;;;;;;;2.29;100.00;101762.19;6244842;23;20099;-91
2022/01/15 09:50:46;;;;;;;12.30;7.88;;;;;;;2.39;100.00;101777.06;6244044;23;20380;-91
2022/01/15 09:53:43;;;;;;;13.85;8.02;;;;;;;2.56;100.00;101782.44;6242235;23;20031;-91
2022/01/15 09:56:24;;;;;;;12.95;7.70;;;;;;;2.44;100.00;101762.31;6246214;23;20024;-92
2022/01/15 09:58:54;;;;;;;12.47;7.63;;;;;;;2.83;100.00;101832.38;6225855;23;20111;-90
2022/01/15 10:01:36;;;;;;;12.57;7.80;;;;;;;2.78;100.00;101823.59;6245934;23;20067;-91
2022/01/15 10:04:04;;;;;;;12.18;8.38;;;;;;;2.40;100.00;101757.91;6242717;23;20103;-91
2022/01/15 10:07:10;;;;;;;12.10;8.23;;;;;;;2.54;100.00;101774.59;6218297;23;20028;-91
2022/01/15 10:09:37;;;;;;;14.65;10.30;;;;;;;2.58;100.00;101773.75;6247369;23;20103;-91
2022/01/15 10:12:07;;;;;;;13.82;9.38;;;;;;;2.63;100.00;101781.66;6199589;23;20034;-91
2022/01/15 10:14:38;;;;;;;15.73;10.15;;;;;;;2.83;100.00;101806.22;6246967;23;20090;-90
2022/01/15 10:17:29;;;;;;;14.77;9.57;;;;;;;2.59;100.00;101765.06;6237700;23;20111;-91
2022/01/15 10:20:00;;;;;;;15.00;10.00;;;;;;;2.75;100.00;101772.13;6248220;23;20024;-92
2022/01/15 10:22:32;;;;;;;16.08;9.80;;;;;;;2.89;100.00;101795.78;6237182;23;20014;-94
2022/01/15 10:25:14;;;;;;;12.70;8.80;;;;;;;2.60;98.56;101752.84;6259258;23;20027;-93
2022/01/15 10:27:49;;;;;;;15.05;9.90;;;;;;;2.64;99.79;101754.63;6259997;23;20020;-94
2022/01/15 10:30:20;;;;;;;13.00;9.20;;;;;;;2.65;99.63;101751.16;6238231;23;20114;-92
2022/01/15 10:32:58;;;;;;;13.52;9.45;;;;;;;2.92;100.00;101793.19;6259279;23;20012;-93
2022/01/15 10:35:43;;;;;;;18.00;11.55;;;;;;;2.69;100.00;101737.22;6260652;23;20068;-93
2022/01/15 10:38:17;;;;;;;18.35;11.75;;;;;;;3.10;100.00;101793.31;6250222;23;20031;-90
2022/01/15 10:40:57;;;;;;;16.98;11.15;;;;;;;3.00;100.00;101757.47;6243925;23;20027;-91
2022/01/15 10:43:47;;;;;;;;;;;;;;;;;;;;;
2022/01/15 10:46:43;;;;;;;13.80;9.98;;;;;;;2.86;100.00;101730.34;6216333;23;20027;-92
2022/01/15 10:49:35;;;;;;;16.85;10.75;;;;;;;2.90;99.35;101726.88;6240629;23;20098;-93
2022/01/15 10:52:26;;;;;;;16.23;10.57;;;;;;;3.25;99.12;101789.00;6233735;23;20039;-91
2022/01/15 10:55:25;;;;;;;16.13;10.25;;;;;;;2.92;99.30;101716.44;6250960;23;20020;-94
2022/01/15 10:57:58;;;;;;;15.95;10.00;;;;;;;3.09;98.80;101747.06;6236956;22;20059;-91
2022/01/15 11:00:47;;;;;;;12.77;9.18;;;;;;;3.24;98.19;101761.09;6227331;23;20016;-94
2022/01/15 11:03:43;;;;;;;13.18;8.93;;;;;;;3.27;97.91;101769.84;6225239;23;20526;-93
2022/01/15 11:06:34;;;;;;;15.50;10.10;;;;;;;2.92;98.60;101695.50;6221806;23;20024;-91
2022/01/15 11:09:01;;;;;;;13.88;9.05;;;;;;;3.08;96.97;101719.13;6189841;23;20051;-91
2022/01/15 11:11:32;;;;;;;13.20;8.50;;;;;;;3.01;97.09;101706.88;6189349;23;20017;-91
2022/01/15 11:14:17;;;;;;;13.98;8.80;;;;;;;2.92;97.35;101680.69;6190051;23;20347;-92
2022/01/15 11:16:44;;;;;;;13.23;8.90;;;;;;;3.11;97.04;101715.66;6216215;23;20043;-92
2022/01/15 11:19:27;;;;;;;;;;;;;;;3.28;97.29;101747.16;6213649;23;20008;-91
2022/01/15 11:22:05;;;;;;;13.23;10.23;;;;;;;3.09;97.37;101718.28;6213682;23;19984;-91
2022/01/15 11:24:35;;;;;;;15.05;10.45;;;;;;;3.15;97.37;101727.88;6212160;23;20048;-90
2022/01/15 11:27:07;;;;;;;13.93;10.07;;;;;;;3.25;97.16;101736.66;6214875;23;20028;-91
2022/01/15 11:29:35;;;;;;;14.35;9.43;;;;;;;2.94;97.27;101689.41;6213939;23;20017;-92
2022/01/15 11:32:03;;;;;;;12.60;8.73;;;;;;;2.89;97.30;101669.31;6214112;23;20080;-93
2022/01/15 11:34:32;;;;;;;13.73;9.30;;;;;;;3.16;96.60;101712.19;6217680;23;20020;-94
2022/01/15 11:37:14;;;;;;;14.63;9.88;;;;;;;3.22;96.25;101729.66;6221598;23;20080;-93
2022/01/15 11:39:46;;;;;;;12.77;9.20;;;;;;;3.16;96.81;101730.50;6227232;23;20021;-92
2022/01/15 11:42:35;;;;;;;13.95;9.80;;;;;;;3.05;97.90;101708.66;6221306;23;20059;-89
2022/01/15 11:45:02;;;;;;;13.25;9.68;;;;;;;3.15;97.84;101723.50;6213071;23;20021;-91
2022/01/15 11:47:32;;;;;;;12.88;9.18;;;;;;;2.96;97.46;101697.28;6185008;23;20020;-92
2022/01/15 11:50:20;;;;;;;15.02;10.18;;;;;;;3.12;98.20;101705.22;6211609;23;20039;-93
2022/01/15 11:52:47;;;;;;;10.57;8.55;;;;;;;3.08;97.78;101695.59;6187874;23;20091;-92
2022/01/15 11:55:18;;;;;;;9.95;8.05;;;;;;;3.26;97.40;101717.47;6213130;23;20478;-91
2022/01/15 11:57:50;;;;;;;11.70;8.75;;;;;;;2.99;97.90;101664.13;6227455;23;20020;-92
2022/01/15 12:00:26;;;;;;;10.88;7.90;;;;;;;3.16;97.96;101683.38;6243784;23;20020;-92
2022/01/15 12:02:57;;;;;;;10.15;8.40;;;;;;;3.04;97.05;101657.19;6219192;23;20023;-93
2022/01/15 12:05:28;;;;;;;10.85;8.75;;;;;;;2.97;97.06;101642.34;6247232;23;20016;-92
2022/01/15 12:08:00;;;;;;;9.80;8.18;;;;;;;3.20;96.91;101686.03;6245210;23;20051;-92
2022/01/15 12:10:51;;;;;;;10.30;8.32;;;;;;;3.13;97.02;101657.22;6245936;23;20028;-91
2022/01/15 12:13:29;;;;;;;9.55;7.88;;;;;;;3.16;96.87;101664.19;6243952;23;20070;-92
2022/01/15 12:16:31;;;;;;;9.00;7.40;;;;;;;3.29;97.51;101688.69;6245400;23;20019;-92
2022/01/15 12:19:10;;;;;;;9.20;7.13;;;;;;;3.04;97.08;101645.84;6243202;23;20028;-91